Du har inga inställningar för hoppväder.nu

Hoppväder.nu

Senast uppdaterat 13:47

UTC-tid

2020-02-25 kl. 12:47


Sol och måne

Solen går upp 7:02 och går ner 17:04 (beräknade cirkatider)
Nästa fullmåne blir om 13 dagar (2020-03-09)

METAR

ESSA (Arlanda, Stockholm)
(27 minuter sedan)
ESSA 251220Z 08016KT 9999 SCT038 03/M03 Q0993 RWY 01L CLEAR AND DRY 51-100 PCT BA GOOD RWY 08 CLEAR AND DRY 51-100 PCT BA GOOD RWY 01R CLEAR AND DRY 51-100 PCT BA GOOD NOSIG=



ESSD (Borlänge)
(27 minuter sedan)
ESSD 251220Z 08012KT 9999 FEW016 01/M05 Q0994=



EFMA (Mariehamn)
(27 minuter sedan)
EFMA 251220Z AUTO 09010KT 050V120 CAVOK 02/M04 Q0996=



ESOW (Västerås)
(27 minuter sedan)
ESOW 251220Z 06009KT 9999 FEW029 BKN039 04/M02 Q0993=






TAF

ESSA (Arlanda, Stockholm)
(77 minuter sedan)
ESSA 251130Z 2512/2612 09015KT 9999 SCT025 PROB40 2513/2521 4000 -SHSNRA BKN025TCU BECMG 2604/2606 05015G25KT=



ESSD (Borlänge)
(59 minuter sedan)
ESSD COR 251148Z 2512/2516 08009KT 9999 BKN016 PROB40 2512/2514 BKN014 PROB40 2514/2516 4000 -SN VV014=



EFMA (Mariehamn)
(77 minuter sedan)
EFMA 251130Z 2512/2521 09013KT CAVOK=



ESOW (Västerås)
(77 minuter sedan)
ESOW 251130Z 2512/2516 07012KT 9999 SCT020 PROB40 2513/2516 4000 -SHSNRA SCT020TCU=





Kodnycklar till TAF och METAR






LHP

(Gryttjom är område F2c i Norra delen)

ÖVERSIKT FÖR OMRÅDE se3 UTFÄRDAD 250842
GÄLLANDE DEN 25 FEBRUARI 2020 MELLAN 09 OCH 17 UTC


Väderöversikt

Ett lågtryck och en ockluderad front drar långsamt österut över södra Sverige.

Sikt under 5 kilometer eller molnbas under 1000 fot
09-17UTC: Hela området utom se34


Måttlig eller svår isbildning
09-17UTC: Hela området utom se34


Måttlig eller svår turbulens
09-11UTC: Område se32 och se31
11-17UTC: Hela området utom se34








Spotting

Hur fungerar spotthjälpen och Vindkartan?

Markvind är ca 0 m/s.
Vind på 600 m ca 0 m/s.
Vind på 1500 m ca 0 m/s.
Vind på 3000 m ca 0 m/s.
SE-GEE flyger ca 45 m/s över marken på finalen.
Du driver ca 0 m bakåt i frifall. (0 m)
Lämplig spot är 6 sekunder eller 272 m innan gropen.
(-6s eller -272 m)
För små grupper eller ensamhoppare bör man vänta 3-5 sekunder mellan grupperna.
För större grupper bör man vänta 7-8 sekunder mellan grupperna.


Vindkartan

Senast uppdaterad 13:47




All data kommer från LFV.se